CYFBCYPH

Guest
Details From CYFB - Iqaluit
To CYPH - Inukjuak
Flight Number -
Tags generated
Created
Modified
Stats Distance 451 nm / 835 km
Max Altitude 18,000 ft / 5,486 m
Waypoints 5
Social Downloads 0
Likes 0
Share VATSIM

Download

Looking for another format? Having issues loading an existing format? Contact us
Advertisement - Login to hide

Notes

Basic altitude profile: - Ascent Rate: 2500ft/min - Ascent Speed: 250kts - Cruise Altitude: 35000ft - Cruise Speed: 420kts - Descent Rate: 1500ft/min - Descent Speed: 250kts Options: - Use NATs: yes - Use PACOTS: yes - Use low airways: yes - Use high airways: yes

Route

CYFB YFY BR26 YPX CYPH

ID Type Via Altitude Latitude Longitude Leg Dist Tot Dist Heading (true) Name
O CYFB APT - 0 ft / 0 m 63.75657˚ -68.55606˚ - 0 nm - Iqaluit
YFY NDB - 500 ft / 152 m 63.73333˚ -68.54806˚ 1 nm 1 nm 171° / 171° FROBAY NDB
YZG NDB BR26 (AWY-LO) 18,000 ft / 5,486 m 62.17944˚ -75.67722˚ 215 nm 217 nm 248° / 241° SALLUIT NDB
YPX DME BR26 (AWY-LO) 18,000 ft / 5,486 m 60.04361˚ -77.27950˚ 136 nm 353 nm 201° / 199° PUVIRNITUQ QUE DME
O CYPH APT - 0 ft / 0 m 58.47181˚ -78.07722˚ 97 nm 451 nm 195° / 194° Inukjuak

Altitude Profile

Advertisement - Login to hide

Weather


0- 5 10 15 20 25 30 35+ Temperature / ° C

Clouds and Precipitation
Forecast for 2017-12-14 00:00 UTC. Updated 2 hours ago

Ground ~20,000 ft ~40,000 ft Winds

CYFB

Details ICAO CYFB (YFB)
Name Iqaluit
Region Canada
Timezone America/Iqaluit (UTC-5.0)
Stats Elevation 110 ft / 34 m (AMSL)
Location 63.756565° -68.556058°
Runways 1
Magnetic Variation 27.543° W

METAR

CYFB 140100Z 12006KT 15SM -SN BKN038 M13/M18 A3009 RMK SC7 SLP196

Decode

TAF

TAF CYFB 132339Z 1400/1424 VRB03KT P6SM -SN BKN040 TEMPO 1400/1403 P6SM NSW SCT040 FM140300 VRB03KT P6SM SCT025 FM141200 33012KT P6SM SCT150 BECMG 1417/1419 SCT080 BKN150 RMK NXT FCST BY 140600Z

Decode

Departure Runways

ID Width Length Bearing (true) Bearing (mag) Surface Threshold Offset Overrun Length
17 200 ft / 61 m 8,605 ft / 2,623 m 135.58° 163.12° Asphalt 0 ft / 0 m 210 ft / 64 m
35 200 ft / 61 m 8,605 ft / 2,623 m 315.62° 343.16° Asphalt 0 ft / 0 m 243 ft / 74 m

CYPH

Details ICAO CYPH (YPH)
Name Inukjuak
Region Canada
Timezone America/Montreal (UTC-5.0)
Stats Elevation 78 ft / 24 m (AMSL)
Location 58.471815° -78.077222°
Runways 1
Magnetic Variation 18.124° W

METAR

CYPH 140100Z AUTO 08011G17KT 9SM OVC047 M21/M24 A2989 RMK SLP125

Decode

TAF

TAF CYPH 132339Z 1400/1412 12012KT P6SM OVC050 TEMPO 1400/1406 5SM -SN BKN020 OVC050 FM140600 07012KT P6SM SCT007 FM140900 03015KT P6SM SCT005 BKN015 PROB30 1409/1412 BKN005 RMK FCST BASED ON AUTO OBS. NXT FCST BY 140600Z

Decode

Destination Runways

ID Width Length Bearing (true) Bearing (mag) Surface Threshold Offset Overrun Length
23 131 ft / 40 m 3,915 ft / 1,193 m 46.70° 64.82° Gravel 0 ft / 0 m 0 ft / 0 m
5 131 ft / 40 m 3,915 ft / 1,193 m 226.71° 244.83° Gravel 0 ft / 0 m 0 ft / 0 m